Time;durP1;ratioP1;P1;durP2;ratioP2;P2;SDS_P1;SDS_P2;PMS_P1;PMS_P2;Temp;Humidity;BMP_temperature;BMP_pressure;BME280_temperature;BME280_humidity;BME280_pressure;Samples;Min_cycle;Max_cycle;Signal;HPM_P1;HPM_P2
2022/11/16 00:00:42;;;;;;;15.70;10.85;;;10.50;54.00;;;;;;7390979;19;20037;-70
2022/11/16 00:03:12;;;;;;;14.93;11.15;;;10.40;53.90;;;;;;7364968;19;20011;-68
2022/11/16 00:05:42;;;;;;;17.35;11.15;;;10.40;53.90;;;;;;7363995;19;20006;-69
2022/11/16 00:08:14;;;;;;;15.68;10.95;;;10.40;54.10;;;;;;7368806;19;20049;-70
2022/11/16 00:10:44;;;;;;;17.42;11.25;;;10.40;54.50;;;;;;7369398;19;20011;-69
2022/11/16 00:13:14;;;;;;;16.75;11.38;;;10.40;54.70;;;;;;7367319;19;20003;-69
2022/11/16 00:15:44;;;;;;;17.10;10.65;;;10.40;54.80;;;;;;7385722;19;20369;-69
2022/11/16 00:18:13;;;;;;;16.10;11.57;;;10.30;54.70;;;;;;7366868;19;20017;-69
2022/11/16 00:20:44;;;;;;;22.90;12.50;;;10.30;55.10;;;;;;7368070;19;20526;-69
2022/11/16 00:23:16;;;;;;;19.77;12.55;;;10.30;55.40;;;;;;7366216;19;20399;-69
2022/11/16 00:25:47;;;;;;;16.83;11.60;;;10.30;55.60;;;;;;7364022;19;20011;-68
2022/11/16 00:28:17;;;;;;;17.20;11.02;;;10.20;55.60;;;;;;7366718;19;20006;-69
2022/11/16 00:30:47;;;;;;;16.58;11.40;;;10.20;56.40;;;;;;7369845;19;20029;-69
2022/11/16 00:33:17;;;;;;;15.57;11.43;;;10.20;56.50;;;;;;7388296;19;20003;-70
2022/11/16 00:35:47;;;;;;;19.77;11.32;;;10.20;57.30;;;;;;7363833;19;20014;-70
2022/11/16 00:38:19;;;;;;;16.90;11.27;;;10.30;57.60;;;;;;7367893;19;20009;-69
2022/11/16 00:40:50;;;;;;;16.90;11.95;;;10.20;57.60;;;;;;7368347;19;20913;-69
2022/11/16 00:43:19;;;;;;;22.20;11.95;;;10.30;57.70;;;;;;7365756;19;20021;-70
2022/11/16 00:45:49;;;;;;;16.75;11.35;;;10.30;57.90;;;;;;7363938;19;20019;-70
2022/11/16 00:48:19;;;;;;;17.60;12.20;;;10.30;57.90;;;;;;7386972;19;20021;-71
2022/11/16 00:50:49;;;;;;;16.60;12.00;;;10.30;57.90;;;;;;7367992;19;20087;-70
2022/11/16 00:53:22;;;;;;;15.98;11.15;;;10.30;57.80;;;;;;7364472;19;20469;-69
2022/11/16 00:55:52;;;;;;;17.48;10.45;;;10.20;57.70;;;;;;7362275;19;20017;-70
2022/11/16 00:58:22;;;;;;;14.82;10.32;;;10.20;57.60;;;;;;7367964;19;20347;-70
2022/11/16 01:00:52;;;;;;;16.23;10.80;;;10.20;57.50;;;;;;7368743;19;20478;-70
2022/11/16 01:03:22;;;;;;;14.55;10.63;;;10.30;57.60;;;;;;7382991;19;20018;-70
2022/11/16 01:05:52;;;;;;;15.93;10.75;;;10.20;57.50;;;;;;7360851;19;20015;-70
2022/11/16 01:08:24;;;;;;;15.10;9.65;;;10.20;57.00;;;;;;7367572;19;20015;-70
2022/11/16 01:10:54;;;;;;;15.70;9.70;;;10.20;56.90;;;;;;7367395;19;20015;-70
2022/11/16 01:13:21;;;;;;;16.08;9.82;;;10.20;56.20;;;;;;7363929;19;20006;-70
2022/11/16 01:15:51;;;;;;;17.40;10.07;;;10.20;55.30;;;;;;7361289;19;20035;-70
2022/11/16 01:18:21;;;;;;;12.75;8.82;;;10.20;54.70;;;;;;7385347;19;20011;-69
2022/11/16 01:20:52;;;;;;;14.35;9.32;;;10.20;54.70;;;;;;7366686;19;20011;-70
2022/11/16 01:23:24;;;;;;;13.05;9.15;;;10.20;53.90;;;;;;7363957;19;20006;-69
2022/11/16 01:25:58;;;;;;;16.63;9.07;;;10.20;53.70;;;;;;7362059;19;20030;-70
2022/11/16 01:28:29;;;;;;;12.52;8.98;;;10.20;53.70;;;;;;7366722;19;20002;-70
2022/11/16 01:30:59;;;;;;;13.80;9.02;;;10.20;53.60;;;;;;7367672;19;20006;-70
2022/11/16 01:33:30;;;;;;;15.43;9.77;;;10.20;53.60;;;;;;7385002;19;20095;-69
2022/11/16 01:36:00;;;;;;;14.65;8.95;;;10.20;52.80;;;;;;7360302;19;20410;-69
2022/11/16 01:38:33;;;;;;;13.18;9.35;;;10.20;52.40;;;;;;7366015;19;20446;-69
2022/11/16 01:41:04;;;;;;;13.63;9.88;;;10.20;52.40;;;;;;7365356;19;20011;-70
2022/11/16 01:43:51;;;;;;;14.10;9.85;;;10.10;52.60;;;;;;7363804;19;20014;-70
2022/11/16 01:46:22;;;;;;;14.20;8.18;;;10.20;53.10;;;;;;7360054;19;20003;-70
2022/11/16 01:48:57;;;;;;;12.52;8.93;;;10.20;53.60;;;;;;7365335;19;20465;-70
2022/11/16 01:51:27;;;;;;;12.98;8.63;;;10.10;53.20;;;;;;7383434;19;20026;-70
2022/11/16 01:54:02;;;;;;;11.05;7.78;;;10.10;52.40;;;;;;7366838;19;20014;-70
2022/11/16 01:56:34;;;;;;;11.82;8.18;;;10.10;52.80;;;;;;7358140;19;20018;-68
2022/11/16 01:59:04;;;;;;;11.77;7.38;;;10.10;52.30;;;;;;7366369;19;20006;-71
2022/11/16 02:01:34;;;;;;;11.32;7.53;;;10.10;51.80;;;;;;7361060;19;20011;-71
2022/11/16 02:04:04;;;;;;;10.70;7.78;;;10.10;51.90;;;;;;7364880;19;20478;-70
2022/11/16 02:06:54;;;;;;;11.75;7.93;;;10.10;52.40;;;;;;7380275;19;20014;-70
2022/11/16 02:09:54;;;;;;;10.48;8.00;;;10.00;51.70;;;;;;7366547;19;20002;-70
2022/11/16 02:12:58;;;;;;;11.15;7.00;;;10.00;51.60;;;;;;7362252;19;20475;-70
2022/11/16 02:15:33;;;;;;;11.55;7.32;;;10.00;51.30;;;;;;7357808;19;20082;-70
2022/11/16 02:18:13;;;;;;;10.70;7.82;;;10.00;51.60;;;;;;7362728;19;20011;-70
2022/11/16 02:20:59;;;;;;;10.88;7.97;;;10.00;51.50;;;;;;7365427;19;20029;-70
2022/11/16 02:23:59;;;;;;;10.43;7.72;;;10.00;51.60;;;;;;7361545;19;20806;-70
2022/11/16 02:27:03;;;;;;;10.85;8.52;;;9.90;53.00;;;;;;7353751;19;20007;-70
2022/11/16 02:29:39;;;;;;;11.98;9.10;;;9.90;53.10;;;;;;7364732;19;20007;-70
2022/11/16 02:32:14;;;;;;;12.65;10.02;;;10.00;53.20;;;;;;7360918;19;20002;-70
2022/11/16 02:34:48;;;;;;;14.48;10.27;;;9.90;53.70;;;;;;7364891;19;20045;-70
2022/11/16 02:37:22;;;;;;;14.00;10.15;;;9.90;54.30;;;;;;7358925;19;20006;-69
2022/11/16 02:39:57;;;;;;;13.70;10.18;;;9.90;54.40;;;;;;7363954;19;20014;-69
2022/11/16 02:42:32;;;;;;;13.95;10.15;;;9.90;54.50;;;;;;7383803;19;20007;-70
2022/11/16 02:45:06;;;;;;;13.02;9.80;;;9.90;55.40;;;;;;7360236;19;20017;-70
2022/11/16 02:47:38;;;;;;;16.40;9.82;;;9.90;56.10;;;;;;7359998;19;20101;-70
2022/11/16 02:50:12;;;;;;;18.23;11.15;;;9.80;56.30;;;;;;7365465;19;20770;-69
2022/11/16 02:52:42;;;;;;;13.30;10.13;;;9.90;56.70;;;;;;7362350;19;20054;-69
2022/11/16 02:55:13;;;;;;;17.35;11.10;;;9.80;56.60;;;;;;7359864;19;20469;-69
2022/11/16 02:57:49;;;;;;;14.85;10.57;;;9.80;57.30;;;;;;7380917;19;20014;-70
2022/11/16 03:00:25;;;;;;;14.15;10.93;;;9.80;57.70;;;;;;7365574;19;20038;-69
2022/11/16 03:03:10;;;;;;;12.77;9.35;;;9.90;58.30;;;;;;7360108;19;20015;-69
2022/11/16 03:05:43;;;;;;;13.95;9.63;;;9.80;58.30;;;;;;7358798;19;20384;-69
2022/11/16 03:08:20;;;;;;;17.75;10.45;;;9.90;58.50;;;;;;7361828;19;20018;-69
2022/11/16 03:13:39;;;;;;;14.50;10.20;;;9.90;59.10;;;;;;7363242;19;20011;-70
2022/11/16 03:16:16;;;;;;;15.50;10.20;;;9.80;59.10;;;;;;7355834;19;20436;-70
2022/11/16 03:18:48;;;;;;;15.10;10.93;;;9.80;59.20;;;;;;7368662;19;20014;-70
2022/11/16 03:21:25;;;;;;;15.30;10.73;;;9.80;59.50;;;;;;7383381;19;20007;-69
2022/11/16 03:23:55;;;;;;;12.40;9.65;;;9.80;59.80;;;;;;7363375;19;20017;-70
2022/11/16 03:26:29;;;;;;;14.95;10.55;;;9.80;60.10;;;;;;7356682;19;20010;-70
2022/11/16 03:29:02;;;;;;;15.65;10.43;;;9.80;60.40;;;;;;7362984;19;20028;-69
2022/11/16 03:31:39;;;;;;;14.95;11.05;;;9.80;60.50;;;;;;7359397;19;20006;-70
2022/11/16 03:34:15;;;;;;;15.18;10.45;;;9.80;60.70;;;;;;7365199;19;20010;-70
2022/11/16 03:36:48;;;;;;;14.27;10.73;;;9.90;60.80;;;;;;7376279;19;20029;-72
2022/11/16 03:39:24;;;;;;;16.98;11.65;;;9.90;60.70;;;;;;7383977;19;20021;-69
2022/11/16 03:41:54;;;;;;;12.15;9.90;;;9.90;61.20;;;;;;7359966;19;20010;-70
2022/11/16 03:44:24;;;;;;;13.35;9.82;;;9.90;60.40;;;;;;7362837;19;20013;-70
2022/11/16 03:46:57;;;;;;;12.85;10.20;;;9.80;60.40;;;;;;7354472;19;20079;-69
2022/11/16 03:49:27;;;;;;;14.88;9.75;;;9.80;60.50;;;;;;7363898;19;20014;-70
2022/11/16 03:51:56;;;;;;;15.85;10.32;;;9.80;60.60;;;;;;7359201;19;20474;-70
2022/11/16 03:54:27;;;;;;;12.73;9.80;;;9.80;60.70;;;;;;7384928;19;20109;-70
2022/11/16 03:56:57;;;;;;;13.13;9.63;;;9.80;60.80;;;;;;7355009;19;20482;-70
2022/11/16 03:59:27;;;;;;;13.30;9.52;;;9.80;60.80;;;;;;7363367;19;20017;-70
2022/11/16 04:02:02;;;;;;;14.05;10.15;;;9.80;60.90;;;;;;7358093;19;20014;-70
2022/11/16 04:26:14;;;;;;;17.15;10.77;;;9.90;61.60;;;;;;7361780;19;20057;-70
2022/11/16 04:28:41;;;;;;;13.27;9.25;;;9.90;61.80;;;;;;7370166;19;20450;-70
2022/11/16 04:39:20;;;;;;;11.57;8.20;;;10.00;61.50;;;;;;7368951;19;20330;-69
2022/11/16 04:47:18;;;;;;;11.50;7.97;;;9.90;62.60;;;;;;7363057;19;20010;-69
2022/11/16 04:49:50;;;;;;;11.00;8.48;;;10.00;62.10;;;;;;7366596;19;20010;-69
2022/11/16 04:52:20;;;;;;;13.60;9.00;;;10.00;62.30;;;;;;7365452;19;20017;-70
2022/11/16 04:54:50;;;;;;;14.02;7.93;;;10.00;62.60;;;;;;7365464;19;20025;-70
2022/11/16 04:57:20;;;;;;;10.48;7.78;;;10.00;62.70;;;;;;7385159;19;20015;-70
2022/11/16 04:59:50;;;;;;;9.90;7.95;;;10.00;62.80;;;;;;7367637;19;20724;-70
2022/11/16 05:02:20;;;;;;;8.98;7.13;;;10.00;62.70;;;;;;7365443;19;20014;-70
2022/11/16 05:04:52;;;;;;;10.55;7.60;;;10.00;62.90;;;;;;7364951;19;20006;-70
2022/11/16 05:07:22;;;;;;;12.63;8.30;;;9.90;64.10;;;;;;7363095;19;20011;-69
2022/11/16 05:09:52;;;;;;;11.25;8.85;;;10.00;63.70;;;;;;7367225;19;20010;-69
2022/11/16 05:12:24;;;;;;;11.45;7.85;;;10.00;64.00;;;;;;7387536;19;20003;-70
2022/11/16 05:14:55;;;;;;;11.00;8.40;;;10.00;64.30;;;;;;7363653;19;20011;-70
2022/11/16 05:17:25;;;;;;;10.70;8.30;;;10.00;64.40;;;;;;7364145;19;20015;-70
2022/11/16 05:22:40;;;;;;;10.43;7.57;;;10.00;64.70;;;;;;7364172;19;20010;-70
2022/11/16 05:25:09;;;;;;;9.70;7.55;;;10.00;64.70;;;;;;7361630;19;20017;-70
2022/11/16 05:27:39;;;;;;;9.60;7.47;;;10.00;64.70;;;;;;7385471;19;20042;-70
2022/11/16 05:30:10;;;;;;;10.38;7.70;;;10.00;64.80;;;;;;7366623;19;20384;-70
2022/11/16 05:32:40;;;;;;;12.77;7.82;;;10.00;65.00;;;;;;7364987;19;20023;-70
2022/11/16 05:35:12;;;;;;;14.38;8.02;;;10.00;65.40;;;;;;7362022;19;20010;-70
2022/11/16 05:37:42;;;;;;;12.30;8.90;;;10.00;65.50;;;;;;7363285;19;20482;-69
2022/11/16 05:40:13;;;;;;;12.82;8.07;;;9.90;66.50;;;;;;7367032;19;20006;-70
2022/11/16 05:42:43;;;;;;;10.55;8.15;;;9.90;66.60;;;;;;7385515;19;20044;-70
2022/11/16 05:45:13;;;;;;;11.15;7.38;;;10.00;65.70;;;;;;7359510;19;20021;-70
2022/11/16 05:47:49;;;;;;;11.85;8.07;;;9.90;66.60;;;;;;7363126;19;20010;-70
2022/11/16 05:50:22;;;;;;;10.57;7.32;;;10.00;65.70;;;;;;7366954;19;20014;-70
2022/11/16 05:52:51;;;;;;;10.23;7.95;;;9.90;66.60;;;;;;7363162;19;20020;-69
2022/11/16 05:55:21;;;;;;;10.55;6.50;;;10.00;65.70;;;;;;7361800;19;20010;-69
2022/11/16 05:57:51;;;;;;;13.00;7.95;;;9.90;66.70;;;;;;7361961;19;20018;-70
2022/11/16 06:00:23;;;;;;;11.00;7.50;;;9.90;66.70;;;;;;7387248;19;20015;-69
2022/11/16 06:02:53;;;;;;;13.27;8.07;;;9.90;66.70;;;;;;7364705;19;20010;-70
2022/11/16 06:05:26;;;;;;;11.30;7.80;;;9.90;66.70;;;;;;7364356;19;20015;-70
2022/11/16 06:07:55;;;;;;;11.27;7.47;;;9.90;66.70;;;;;;7358802;19;20758;-69
2022/11/16 06:10:25;;;;;;;9.68;6.95;;;9.90;66.60;;;;;;7366051;19;20010;-70
2022/11/16 06:12:55;;;;;;;11.73;7.40;;;9.90;66.70;;;;;;7361741;19;20458;-70
2022/11/16 06:15:25;;;;;;;10.15;6.95;;;9.90;66.70;;;;;;7386114;19;20018;-69
2022/11/16 06:17:55;;;;;;;8.57;7.00;;;9.80;66.60;;;;;;7357512;19;20017;-69
2022/11/16 06:20:27;;;;;;;9.85;7.07;;;9.90;66.70;;;;;;7365879;19;20010;-69
2022/11/16 06:22:57;;;;;;;9.45;7.03;;;9.90;66.70;;;;;;7360681;19;20478;-70
2022/11/16 06:25:29;;;;;;;9.75;6.57;;;9.90;66.80;;;;;;7363460;19;20006;-68
2022/11/16 06:27:59;;;;;;;9.60;6.65;;;9.90;67.00;;;;;;7356435;19;20014;-70
2022/11/16 06:30:36;;;;;;;12.80;6.95;;;9.90;67.20;;;;;;7385785;19;20462;-68
2022/11/16 06:33:08;;;;;;;11.60;7.13;;;10.00;66.30;;;;;;7361797;19;20022;-69
2022/11/16 06:35:41;;;;;;;13.73;6.28;;;10.00;66.30;;;;;;7364531;19;20014;-69
2022/11/16 06:38:17;;;;;;;9.75;6.18;;;10.00;66.20;;;;;;7356422;19;20013;-70
2022/11/16 06:40:47;;;;;;;10.95;7.03;;;10.10;66.30;;;;;;7364235;19;20085;-69
2022/11/16 06:43:17;;;;;;;8.55;6.63;;;10.10;66.30;;;;;;7360907;19;20015;-69
2022/11/16 06:45:51;;;;;;;7.95;6.07;;;10.10;66.20;;;;;;7368409;19;20022;-71
2022/11/16 06:48:22;;;;;;;9.85;6.25;;;10.10;66.00;;;;;;7383420;19;20013;-69
2022/11/16 06:50:55;;;;;;;8.68;6.65;;;10.10;66.00;;;;;;7362671;19;20013;-69
2022/11/16 06:53:25;;;;;;;9.95;6.70;;;10.20;66.00;;;;;;7361163;19;20014;-69
2022/11/16 06:56:03;;;;;;;9.43;6.95;;;10.20;65.90;;;;;;7358769;19;20078;-69
2022/11/16 06:58:33;;;;;;;11.70;9.02;;;10.20;65.80;;;;;;7364175;19;20668;-69
2022/11/16 07:01:08;;;;;;;13.73;9.50;;;10.20;65.80;;;;;;7364687;19;20077;-69
2022/11/16 07:03:37;;;;;;;10.73;7.55;;;10.20;65.70;;;;;;7384634;19;20085;-69
2022/11/16 07:06:13;;;;;;;10.02;7.85;;;10.20;65.10;;;;;;7354301;19;20580;-69
2022/11/16 07:08:43;;;;;;;10.90;7.00;;;10.20;65.20;;;;;;7364236;19;20870;-70
2022/11/16 07:11:13;;;;;;;7.93;5.95;;;10.20;65.10;;;;;;7362594;19;20011;-75
2022/11/16 07:13:43;;;;;;;9.35;6.57;;;10.20;65.00;;;;;;7363757;19;20006;-69
2022/11/16 07:16:14;;;;;;;8.07;5.50;;;10.20;64.80;;;;;;7358030;19;20015;-70
2022/11/16 07:18:43;;;;;;;6.53;5.50;;;10.20;64.70;;;;;;7385561;19;20014;-71
2022/11/16 07:21:17;;;;;;;5.32;4.40;;;10.20;64.50;;;;;;7360148;19;20091;-69
2022/11/16 07:23:47;;;;;;;6.50;4.45;;;10.30;64.30;;;;;;7364477;19;20464;-70
2022/11/16 07:26:17;;;;;;;5.45;4.18;;;10.30;63.80;;;;;;7356225;19;20014;-70
2022/11/16 07:28:48;;;;;;;5.68;3.97;;;10.40;63.10;;;;;;7361736;19;20357;-69
2022/11/16 07:31:18;;;;;;;4.63;3.40;;;10.40;62.20;;;;;;7360960;19;20034;-69
2022/11/16 07:33:48;;;;;;;6.95;4.45;;;10.50;61.20;;;;;;7363797;19;20014;-71
2022/11/16 07:36:20;;;;;;;5.47;3.78;;;10.50;59.80;;;;;;7377181;19;20014;-70
2022/11/16 07:38:50;;;;;;;6.63;4.47;;;10.50;58.50;;;;;;7362139;19;20002;-69
2022/11/16 07:41:21;;;;;;;5.90;4.03;;;10.60;58.00;;;;;;7359642;19;20006;-69
2022/11/16 07:43:51;;;;;;;6.60;3.72;;;10.60;57.00;;;;;;7363490;19;20013;-70
2022/11/16 07:46:23;;;;;;;7.53;4.15;;;10.70;56.00;;;;;;7355048;19;20025;-69
2022/11/16 07:49:16;;;;;;;5.65;3.53;;;10.70;55.60;;;;;;7363162;19;20359;-69
2022/11/16 07:51:48;;;;;;;5.47;3.78;;;10.80;54.70;;;;;;7376989;19;20014;-76
2022/11/16 07:54:18;;;;;;;4.65;3.53;;;10.80;54.20;;;;;;7385351;19;20373;-70
2022/11/16 07:56:48;;;;;;;6.60;5.90;;;11.00;53.10;;;;;;7353652;19;20092;-70
2022/11/16 07:59:18;;;;;;;4.00;3.28;;;11.00;52.40;;;;;;7361814;19;20514;-70
2022/11/16 08:01:48;;;;;;;3.72;2.90;;;11.00;50.30;;;;;;7366779;19;20010;-69
2022/11/16 08:04:18;;;;;;;3.45;2.85;;;11.10;49.30;;;;;;7369539;19;20335;-68
2022/11/16 08:06:51;;;;;;;6.43;3.28;;;11.10;47.30;;;;;;7360435;19;20375;-70
2022/11/16 08:09:21;;;;;;;4.45;2.92;;;11.10;46.60;;;;;;7392274;19;20006;-69
2022/11/16 08:11:51;;;;;;;4.13;3.10;;;11.20;46.30;;;;;;7365988;19;20077;-69
2022/11/16 08:14:21;;;;;;;4.00;3.00;;;11.20;45.50;;;;;;7370103;19;20006;-68
2022/11/16 08:16:51;;;;;;;4.28;2.70;;;11.20;45.90;;;;;;7362900;19;20026;-68
2022/11/16 08:19:20;;;;;;;4.32;2.47;;;11.20;44.60;;;;;;7369120;19;20009;-70
2022/11/16 08:21:53;;;;;;;4.88;2.80;;;11.20;44.20;;;;;;7365726;19;20017;-69
2022/11/16 08:24:23;;;;;;;6.38;2.80;;;11.30;43.80;;;;;;7390788;19;20035;-69
2022/11/16 08:26:53;;;;;;;3.40;2.58;;;11.40;43.80;;;;;;7360311;19;20014;-70
2022/11/16 08:29:23;;;;;;;10.30;6.70;;;11.30;42.30;;;;;;7369397;19;20014;-69
2022/11/16 08:31:53;;;;;;;5.07;2.72;;;11.50;41.90;;;;;;7366550;19;20030;-72
2022/11/16 08:34:23;;;;;;;3.42;1.60;;;11.60;38.80;;;;;;7366653;19;20011;-69
2022/11/16 08:36:56;;;;;;;2.72;1.80;;;11.50;36.50;;;;;;7360183;19;20007;-70
2022/11/16 08:39:25;;;;;;;6.47;1.90;;;11.60;36.90;;;;;;7390491;19;20079;-69
2022/11/16 08:41:55;;;;;;;2.30;1.60;;;11.60;34.30;;;;;;7364139;19;20014;-70
2022/11/16 08:44:25;;;;;;;7.55;1.80;;;11.60;30.80;;;;;;7367289;19;20010;-69
2022/11/16 08:46:55;;;;;;;3.35;1.83;;;11.70;32.70;;;;;;7351069;19;20007;-69
2022/11/16 08:49:24;;;;;;;4.57;2.17;;;11.70;30.00;;;;;;7365772;19;20122;-70
2022/11/16 08:51:58;;;;;;;4.88;2.50;;;11.80;30.00;;;;;;7362889;19;20691;-68
2022/11/16 08:54:30;;;;;;;2.53;1.73;;;11.80;29.00;;;;;;7387403;19;20046;-69
2022/11/16 08:57:00;;;;;;;4.47;1.80;;;11.80;26.80;;;;;;7356848;19;20014;-69
2022/11/16 08:59:30;;;;;;;6.07;2.00;;;11.70;24.30;;;;;;7366922;19;20019;-69
2022/11/16 09:02:00;;;;;;;3.20;2.05;;;11.70;25.90;;;;;;7362792;19;20006;-69
2022/11/16 09:04:30;;;;;;;4.97;2.30;;;11.80;27.90;;;;;;7366804;19;20014;-69
2022/11/16 09:07:08;;;;;;;3.83;2.20;;;11.80;27.70;;;;;;7355052;19;20782;-69
2022/11/16 09:09:38;;;;;;;6.78;2.30;;;11.80;27.60;;;;;;7389597;19;20082;-68
2022/11/16 09:12:08;;;;;;;6.10;2.25;;;11.80;27.10;;;;;;7362459;19;20018;-69
2022/11/16 09:14:38;;;;;;;8.30;2.10;;;11.80;25.90;;;;;;7367925;19;20018;-69
2022/11/16 09:17:08;;;;;;;4.13;2.10;;;11.80;26.40;;;;;;7357074;19;20007;-69
2022/11/16 09:19:38;;;;;;;5.38;2.05;;;11.90;25.90;;;;;;7366826;19;20006;-67
2022/11/16 09:22:11;;;;;;;5.93;1.67;;;11.90;21.50;;;;;;7363365;19;20505;-69
2022/11/16 09:24:40;;;;;;;6.55;1.70;;;11.90;19.80;;;;;;7388664;19;20019;-69
2022/11/16 09:27:10;;;;;;;1.80;1.10;;;12.10;20.90;;;;;;7359191;19;20014;-69
2022/11/16 09:29:40;;;;;;;4.10;1.35;;;12.30;21.00;;;;;;7365357;19;20022;-69
2022/11/16 09:32:10;;;;;;;4.28;1.30;;;12.40;17.90;;;;;;7361191;19;20017;-69
2022/11/16 09:34:40;;;;;;;4.78;1.20;;;12.40;18.30;;;;;;7367274;19;20030;-69
2022/11/16 09:37:14;;;;;;;2.10;1.17;;;12.30;16.70;;;;;;7358556;19;20574;-69
2022/11/16 09:39:43;;;;;;;5.10;1.23;;;12.20;13.10;;;;;;7388674;19;20026;-68
2022/11/16 09:42:29;;;;;;;3.42;1.20;;;12.10;16.40;;;;;;7363284;19;20006;-68
2022/11/16 09:45:03;;;;;;;2.47;1.10;;;12.10;13.20;;;;;;7366466;19;20010;-69
2022/11/16 09:47:47;;;;;;;;;;;12.20;15.20;;;;;;7356019;19;20018;-69
2022/11/16 09:50:40;;;;;;;5.20;1.25;;;12.30;13.90;;;;;;7364022;19;19943;-69
2022/11/16 09:53:27;;;;;;;4.13;1.10;;;12.50;15.20;;;;;;7361139;19;20011;-69
2022/11/16 09:56:00;;;;;;;3.47;1.30;;;12.50;14.80;;;;;;7362426;19;20281;-71
2022/11/16 09:58:35;;;;;;;5.25;1.55;;;12.60;15.30;;;;;;7358789;19;20037;-68
2022/11/16 10:01:15;;;;;;;3.53;1.40;;;12.50;13.70;;;;;;7363910;19;20030;-69
2022/11/16 10:03:49;;;;;;;5.00;1.23;;;12.40;14.20;;;;;;7385182;19;20022;-69
2022/11/16 10:06:24;;;;;;;4.00;1.50;;;12.40;15.30;;;;;;7358964;19;20022;-69
2022/11/16 10:08:58;;;;;;;10.38;1.65;;;12.70;15.80;;;;;;7363259;19;20022;-70
2022/11/16 10:11:55;;;;;;;4.25;1.42;;;12.70;13.20;;;;;;7359187;19;20014;-69
2022/11/16 10:15:03;;;;;;;3.47;1.15;;;12.80;10.70;;;;;;7365349;19;20019;-69
2022/11/16 10:17:43;;;;;;;2.40;1.25;;;13.20;11.40;;;;;;7353488;19;20465;-69
2022/11/16 10:20:43;;;;;;;3.75;1.35;;;13.40;11.60;;;;;;7363296;19;20476;-69
2022/11/16 10:23:21;;;;;;;4.15;1.10;;;13.50;10.10;;;;;;7359080;19;20367;-69
2022/11/16 10:25:58;;;;;;;2.25;0.95;;;13.40;10.00;;;;;;7363212;19;20015;-70
2022/11/16 10:28:42;;;;;;;3.25;0.90;;;13.30;9.30;;;;;;7357156;19;20494;-69
2022/11/16 10:31:21;;;;;;;3.67;1.20;;;13.10;9.40;;;;;;7363023;19;20474;-69
2022/11/16 10:33:55;;;;;;;2.60;1.02;;;13.00;10.70;;;;;;7363906;19;20085;-73
2022/11/16 10:36:28;;;;;;;3.13;1.40;;;13.00;11.90;;;;;;7378176;19;20018;-69
2022/11/16 10:38:58;;;;;;;3.28;1.42;;;12.80;15.30;;;;;;7361963;19;20071;-69
2022/11/16 10:41:36;;;;;;;5.75;1.27;;;12.70;13.40;;;;;;7359158;19;20403;-69
2022/11/16 10:44:19;;;;;;;3.55;1.08;;;12.50;12.20;;;;;;7364364;19;20011;-69
2022/11/16 10:46:58;;;;;;;9.30;1.90;;;12.60;10.60;;;;;;7355981;19;20006;-69
2022/11/16 10:49:35;;;;;;;1.95;1.00;;;12.70;12.50;;;;;;7362666;19;20827;-69
2022/11/16 10:52:06;;;;;;;3.58;1.50;;;12.70;11.90;;;;;;7361285;19;20056;-69
2022/11/16 10:54:36;;;;;;;4.63;1.45;;;12.60;8.80;;;;;;7385743;19;20017;-69
2022/11/16 10:57:16;;;;;;;5.72;4.30;;;12.90;11.90;;;;;;7353239;19;20018;-69
2022/11/16 10:59:47;;;;;;;3.22;1.60;;;13.20;8.00;;;;;;7361401;19;20498;-69
2022/11/16 11:02:30;;;;;;;6.55;1.60;;;13.30;8.20;;;;;;7357934;19;20010;-68
2022/11/16 11:05:07;;;;;;;4.72;1.52;;;13.10;5.60;;;;;;7363663;19;20014;-69
2022/11/16 11:07:39;;;;;;;3.03;1.52;;;13.10;6.90;;;;;;7355049;19;20015;-68
2022/11/16 11:10:31;;;;;;;4.65;2.08;;;13.40;6.10;;;;;;7362451;19;20105;-69
2022/11/16 11:13:09;;;;;;;3.83;1.30;;;13.60;3.70;;;;;;7360724;19;20141;-68
2022/11/16 11:15:39;;;;;;;4.95;1.55;;;13.50;4.40;;;;;;7384501;19;20094;-68
2022/11/16 11:18:26;;;;;;;7.13;1.27;;;13.60;5.70;;;;;;7355026;19;20021;-68
2022/11/16 11:21:09;;;;;;;5.18;1.40;;;13.40;3.70;;;;;;7362076;19;20014;-69
2022/11/16 11:23:45;;;;;;;5.63;2.00;;;13.60;4.70;;;;;;7361327;19;20006;-69
2022/11/16 11:26:40;;;;;;;4.95;2.13;;;13.50;6.00;;;;;;7356219;19;20018;-69
2022/11/16 11:29:23;;;;;;;5.32;2.00;;;13.80;5.90;;;;;;7360754;19;21608;-69
2022/11/16 11:31:55;;;;;;;6.93;1.50;;;14.10;4.70;;;;;;7358573;19;20009;-69
2022/11/16 11:34:28;;;;;;;3.15;1.30;;;14.10;1.00;;;;;;7369356;19;20010;-69
2022/11/16 11:37:01;;;;;;;1.20;0.80;;;14.40;1.00;;;;;;7362179;19;20029;-68
2022/11/16 11:39:34;;;;;;;2.22;0.85;;;14.40;1.00;;;;;;7391873;19;20010;-69
2022/11/16 11:42:07;;;;;;;2.00;0.63;;;14.00;1.00;;;;;;7365564;19;20011;-69
2022/11/16 11:44:50;;;;;;;2.78;0.80;;;14.10;1.00;;;;;;7371133;19;20010;-68
2022/11/16 11:47:43;;;;;;;6.15;1.27;;;14.10;1.00;;;;;;7359942;19;20474;-68
2022/11/16 11:50:41;;;;;;;5.35;1.40;;;14.30;1.00;;;;;;7369743;19;20010;-68
2022/11/16 11:53:23;;;;;;;3.08;0.90;;;14.10;1.00;;;;;;7366443;19;20013;-69
2022/11/16 11:55:58;;;;;;;4.00;1.40;;;14.20;1.00;;;;;;7368612;19;20013;-68
2022/11/16 11:58:32;;;;;;;1.75;0.95;;;14.30;1.00;;;;;;7363548;19;20110;-69
2022/11/16 12:01:31;;;;;;;4.03;0.95;;;14.10;1.00;;;;;;7370120;19;20364;-68
2022/11/16 12:04:40;;;;;;;4.65;1.27;;;13.60;1.00;;;;;;7368155;19;20011;-69
2022/11/16 12:07:20;;;;;;;2.53;1.02;;;13.60;1.00;;;;;;7362373;19;20010;-69
2022/11/16 12:09:57;;;;;;;3.75;1.10;;;13.50;1.00;;;;;;7367038;19;20019;-68
2022/11/16 12:12:41;;;;;;;5.55;1.08;;;13.40;1.00;;;;;;7387446;19;20516;-68
2022/11/16 12:15:30;;;;;;;2.03;1.10;;;13.50;1.00;;;;;;7368523;19;20010;-69
2022/11/16 12:18:13;;;;;;;4.82;1.63;;;13.50;1.00;;;;;;7358816;19;20021;-69
2022/11/16 12:20:53;;;;;;;2.92;0.88;;;13.40;1.00;;;;;;7367564;19;20023;-69
2022/11/16 12:23:59;;;;;;;4.55;0.98;;;13.30;1.00;;;;;;7366176;19;20014;-69
2022/11/16 12:26:38;;;;;;;5.40;1.20;;;13.30;1.00;;;;;;7361376;19;20017;-70
2022/11/16 12:29:22;;;;;;;6.03;1.67;;;13.30;1.00;;;;;;7369029;19;20006;-69
2022/11/16 12:32:14;;;;;;;2.80;1.23;;;13.40;1.00;;;;;;7365188;19;20007;-70
2022/11/16 12:34:59;;;;;;;3.17;1.02;;;13.30;1.00;;;;;;7367334;19;20053;-70
2022/11/16 12:37:38;;;;;;;3.92;1.40;;;13.30;1.00;;;;;;7358642;19;20127;-68
2022/11/16 12:40:24;;;;;;;4.10;1.60;;;13.30;1.00;;;;;;7365299;19;20110;-68
2022/11/16 12:43:00;;;;;;;3.75;1.25;;;13.60;1.00;;;;;;7364084;19;20057;-69
2022/11/16 12:45:50;;;;;;;3.53;1.38;;;13.70;1.00;;;;;;7386569;19;20015;-69
2022/11/16 12:48:43;;;;;;;5.68;1.50;;;13.60;1.00;;;;;;7359235;19;20030;-70
2022/11/16 12:51:31;;;;;;;2.65;1.10;;;13.70;1.00;;;;;;7366753;19;20458;-70
2022/11/16 12:54:36;;;;;;;4.15;1.23;;;13.60;1.00;;;;;;7362703;19;20025;-68
2022/11/16 12:57:17;;;;;;;3.35;1.75;;;13.50;1.00;;;;;;7353637;19;20462;-68
2022/11/16 13:00:04;;;;;;;4.80;1.77;;;13.50;1.00;;;;;;7367535;19;20015;-69
2022/11/16 13:03:05;;;;;;;2.45;1.30;;;13.40;1.00;;;;;;7359226;19;20757;-69
2022/11/16 13:05:49;;;;;;;3.10;1.23;;;13.40;1.00;;;;;;7359172;19;20010;-69
2022/11/16 13:08:39;;;;;;;3.42;1.30;;;13.40;1.00;;;;;;7354454;19;20304;-69
2022/11/16 13:11:15;;;;;;;3.35;1.35;;;13.40;1.00;;;;;;7362553;19;20020;-70
2022/11/16 13:13:47;;;;;;;3.33;1.13;;;13.50;1.00;;;;;;7361722;19;20011;-68
2022/11/16 13:16:24;;;;;;;2.50;1.17;;;13.50;1.00;;;;;;7359610;19;20010;-68
2022/11/16 13:18:55;;;;;;;2.97;1.20;;;13.50;1.00;;;;;;7359461;19;20011;-68
2022/11/16 13:21:37;;;;;;;4.32;2.00;;;13.60;1.00;;;;;;7383950;19;20014;-70
2022/11/16 13:24:28;;;;;;;5.70;1.50;;;13.50;1.00;;;;;;7362461;19;20021;-70
2022/11/16 13:27:24;;;;;;;3.47;1.30;;;13.50;1.00;;;;;;7353374;19;20490;-69
2022/11/16 13:30:00;;;;;;;3.10;1.15;;;13.60;1.00;;;;;;7363390;19;20006;-68
2022/11/16 13:32:45;;;;;;;4.50;1.20;;;13.50;1.00;;;;;;7361014;19;20070;-68
2022/11/16 13:35:19;;;;;;;3.47;1.20;;;13.60;1.00;;;;;;7367130;19;20020;-69
2022/11/16 13:37:50;;;;;;;2.85;0.93;;;13.70;1.00;;;;;;7357754;19;20021;-68
2022/11/16 13:40:28;;;;;;;3.80;1.70;;;13.70;1.00;;;;;;7364897;19;20176;-68
2022/11/16 13:43:08;;;;;;;3.95;1.05;;;13.60;1.00;;;;;;7364367;19;20091;-68
2022/11/16 13:45:42;;;;;;;7.65;1.50;;;13.70;1.00;;;;;;7386516;19;20018;-68
2022/11/16 13:48:20;;;;;;;3.75;1.20;;;13.70;1.00;;;;;;7357246;19;20014;-69
2022/11/16 13:50:53;;;;;;;4.20;1.50;;;13.70;1.00;;;;;;7364010;19;20007;-69
2022/11/16 13:53:27;;;;;;;3.13;1.30;;;13.70;1.00;;;;;;7361789;19;20011;-68
2022/11/16 13:56:20;;;;;;;4.05;1.40;;;13.70;1.00;;;;;;7362337;19;20026;-69
2022/11/16 13:58:58;;;;;;;8.88;1.90;;;13.50;1.00;;;;;;7361521;19;20018;-69
2022/11/16 14:01:58;;;;;;;4.90;1.50;;;13.50;1.00;;;;;;7359797;19;20033;-69
2022/11/16 14:04:56;;;;;;;4.40;1.40;;;13.40;1.00;;;;;;7365791;19;20542;-68
2022/11/16 14:07:43;;;;;;;2.25;1.00;;;13.30;1.00;;;;;;7355967;19;20027;-69